Terminal Aerodrome Forecast
Issued by NWS

Home | Current Version | Previous Version | Text Only | Print | Product List | Glossary On
Versions: 1 2 3 4 5 6 7 8 9 10 11 12 13 14 15 16 17 18 19
000
FTUS45 KABQ 070500
TAFTCC
TAF
KTCC 070540Z 0706/0806 VRB05KT P6SM FEW120
     FM071830 19014G22KT P6SM FEW150
     FM080200 20010G17KT P6SM FEW100=

USA.gov is the U.S. government's official web portal to all federal, state and local government web resources and services.